sensor_id;sensor_type;location;lat;lon;timestamp;P1;durP1;ratioP1;P2;durP2;ratioP2
12852;SDS011;6495;51.808;7.478;2023-02-14T00:01:41;6.13;;;3.63;;
12852;SDS011;6495;51.808;7.478;2023-02-14T00:04:09;5.27;;;3.30;;
12852;SDS011;6495;51.808;7.478;2023-02-14T00:06:38;4.90;;;3.40;;
12852;SDS011;6495;51.808;7.478;2023-02-14T00:09:09;4.30;;;3.00;;
12852;SDS011;6495;51.808;7.478;2023-02-14T00:11:40;4.77;;;3.07;;
12852;SDS011;6495;51.808;7.478;2023-02-14T00:14:10;4.70;;;3.17;;
12852;SDS011;6495;51.808;7.478;2023-02-14T00:16:58;6.70;;;3.27;;
12852;SDS011;6495;51.808;7.478;2023-02-14T00:19:27;7.60;;;3.80;;
12852;SDS011;6495;51.808;7.478;2023-02-14T00:21:56;5.37;;;3.57;;
12852;SDS011;6495;51.808;7.478;2023-02-14T00:24:25;5.20;;;3.57;;
12852;SDS011;6495;51.808;7.478;2023-02-14T00:26:53;4.33;;;3.30;;
12852;SDS011;6495;51.808;7.478;2023-02-14T00:29:23;5.07;;;3.30;;
12852;SDS011;6495;51.808;7.478;2023-02-14T00:31:53;4.87;;;3.33;;
12852;SDS011;6495;51.808;7.478;2023-02-14T00:34:23;7.00;;;3.60;;
12852;SDS011;6495;51.808;7.478;2023-02-14T00:36:52;7.17;;;4.07;;
12852;SDS011;6495;51.808;7.478;2023-02-14T00:39:20;6.27;;;4.40;;
12852;SDS011;6495;51.808;7.478;2023-02-14T00:41:48;7.50;;;4.07;;
12852;SDS011;6495;51.808;7.478;2023-02-14T00:44:17;7.30;;;4.50;;
12852;SDS011;6495;51.808;7.478;2023-02-14T00:46:45;8.13;;;3.77;;
12852;SDS011;6495;51.808;7.478;2023-02-14T00:49:13;8.83;;;4.60;;
12852;SDS011;6495;51.808;7.478;2023-02-14T00:51:43;10.23;;;4.97;;
12852;SDS011;6495;51.808;7.478;2023-02-14T00:54:11;7.97;;;5.07;;
12852;SDS011;6495;51.808;7.478;2023-02-14T00:56:40;9.50;;;5.60;;
12852;SDS011;6495;51.808;7.478;2023-02-14T00:59:08;8.10;;;5.43;;
12852;SDS011;6495;51.808;7.478;2023-02-14T01:01:36;11.80;;;5.63;;
12852;SDS011;6495;51.808;7.478;2023-02-14T01:04:05;9.47;;;5.33;;
12852;SDS011;6495;51.808;7.478;2023-02-14T01:06:34;12.90;;;6.13;;
12852;SDS011;6495;51.808;7.478;2023-02-14T01:09:04;10.97;;;6.03;;
12852;SDS011;6495;51.808;7.478;2023-02-14T01:11:32;11.43;;;6.37;;
12852;SDS011;6495;51.808;7.478;2023-02-14T01:14:00;10.57;;;5.97;;
12852;SDS011;6495;51.808;7.478;2023-02-14T01:16:29;10.93;;;6.07;;
12852;SDS011;6495;51.808;7.478;2023-02-14T01:18:58;13.27;;;6.17;;
12852;SDS011;6495;51.808;7.478;2023-02-14T01:21:28;13.43;;;6.27;;
12852;SDS011;6495;51.808;7.478;2023-02-14T01:23:59;10.27;;;5.30;;
12852;SDS011;6495;51.808;7.478;2023-02-14T01:26:31;9.13;;;5.83;;
12852;SDS011;6495;51.808;7.478;2023-02-14T01:29:01;7.00;;;4.67;;
12852;SDS011;6495;51.808;7.478;2023-02-14T01:31:31;8.80;;;4.67;;
12852;SDS011;6495;51.808;7.478;2023-02-14T01:34:01;10.73;;;4.93;;
12852;SDS011;6495;51.808;7.478;2023-02-14T01:36:32;10.20;;;5.40;;
12852;SDS011;6495;51.808;7.478;2023-02-14T01:39:03;10.30;;;5.03;;
12852;SDS011;6495;51.808;7.478;2023-02-14T01:41:37;9.20;;;4.90;;
12852;SDS011;6495;51.808;7.478;2023-02-14T01:47:23;9.73;;;5.17;;
12852;SDS011;6495;51.808;7.478;2023-02-14T01:49:56;8.53;;;4.97;;
12852;SDS011;6495;51.808;7.478;2023-02-14T01:52:30;6.27;;;4.47;;
12852;SDS011;6495;51.808;7.478;2023-02-14T01:55:07;9.03;;;4.63;;
12852;SDS011;6495;51.808;7.478;2023-02-14T01:57:44;12.63;;;5.70;;
12852;SDS011;6495;51.808;7.478;2023-02-14T02:00:17;9.03;;;5.17;;
12852;SDS011;6495;51.808;7.478;2023-02-14T02:03:04;8.07;;;5.27;;
12852;SDS011;6495;51.808;7.478;2023-02-14T02:05:35;10.10;;;5.93;;
12852;SDS011;6495;51.808;7.478;2023-02-14T02:08:11;7.23;;;5.20;;
12852;SDS011;6495;51.808;7.478;2023-02-14T02:10:39;10.13;;;5.60;;
12852;SDS011;6495;51.808;7.478;2023-02-14T02:13:14;6.80;;;4.27;;
12852;SDS011;6495;51.808;7.478;2023-02-14T02:15:47;7.03;;;4.53;;
12852;SDS011;6495;51.808;7.478;2023-02-14T02:18:32;8.03;;;4.70;;
12852;SDS011;6495;51.808;7.478;2023-02-14T02:21:29;6.77;;;4.47;;
12852;SDS011;6495;51.808;7.478;2023-02-14T02:24:26;6.00;;;4.53;;
12852;SDS011;6495;51.808;7.478;2023-02-14T02:27:16;6.70;;;4.90;;
12852;SDS011;6495;51.808;7.478;2023-02-14T02:33:24;7.00;;;4.17;;
12852;SDS011;6495;51.808;7.478;2023-02-14T02:36:35;5.47;;;4.27;;
12852;SDS011;6495;51.808;7.478;2023-02-14T02:39:21;7.77;;;4.73;;
12852;SDS011;6495;51.808;7.478;2023-02-14T02:42:05;5.60;;;4.10;;
12852;SDS011;6495;51.808;7.478;2023-02-14T02:44:43;8.13;;;4.40;;
12852;SDS011;6495;51.808;7.478;2023-02-14T02:47:24;7.70;;;4.20;;
12852;SDS011;6495;51.808;7.478;2023-02-14T02:50:02;7.23;;;4.83;;
12852;SDS011;6495;51.808;7.478;2023-02-14T02:53:05;6.87;;;4.67;;
12852;SDS011;6495;51.808;7.478;2023-02-14T02:55:43;5.83;;;4.13;;
12852;SDS011;6495;51.808;7.478;2023-02-14T02:58:36;7.53;;;4.37;;
12852;SDS011;6495;51.808;7.478;2023-02-14T03:01:13;5.43;;;3.83;;
12852;SDS011;6495;51.808;7.478;2023-02-14T03:03:48;6.00;;;4.07;;
12852;SDS011;6495;51.808;7.478;2023-02-14T03:06:42;7.10;;;4.63;;
12852;SDS011;6495;51.808;7.478;2023-02-14T03:09:47;6.20;;;4.17;;
12852;SDS011;6495;51.808;7.478;2023-02-14T03:12:40;7.33;;;4.53;;
12852;SDS011;6495;51.808;7.478;2023-02-14T03:16:00;6.20;;;4.13;;
12852;SDS011;6495;51.808;7.478;2023-02-14T03:22:02;7.70;;;4.63;;
12852;SDS011;6495;51.808;7.478;2023-02-14T03:24:45;7.63;;;4.47;;
12852;SDS011;6495;51.808;7.478;2023-02-14T03:27:24;10.43;;;4.40;;
12852;SDS011;6495;51.808;7.478;2023-02-14T03:30:02;7.87;;;4.83;;
12852;SDS011;6495;51.808;7.478;2023-02-14T03:32:41;6.60;;;4.33;;
12852;SDS011;6495;51.808;7.478;2023-02-14T03:35:19;7.87;;;4.93;;
12852;SDS011;6495;51.808;7.478;2023-02-14T03:37:54;6.50;;;4.23;;
12852;SDS011;6495;51.808;7.478;2023-02-14T03:40:31;6.13;;;4.60;;
12852;SDS011;6495;51.808;7.478;2023-02-14T03:43:06;6.70;;;4.27;;
12852;SDS011;6495;51.808;7.478;2023-02-14T03:45:39;6.30;;;4.70;;
12852;SDS011;6495;51.808;7.478;2023-02-14T03:48:16;7.13;;;4.47;;
12852;SDS011;6495;51.808;7.478;2023-02-14T03:50:50;7.60;;;4.83;;
12852;SDS011;6495;51.808;7.478;2023-02-14T03:53:21;7.10;;;4.50;;
12852;SDS011;6495;51.808;7.478;2023-02-14T03:55:54;6.03;;;4.33;;
12852;SDS011;6495;51.808;7.478;2023-02-14T03:58:31;9.83;;;4.87;;
12852;SDS011;6495;51.808;7.478;2023-02-14T04:01:05;7.60;;;5.03;;
12852;SDS011;6495;51.808;7.478;2023-02-14T04:03:41;7.77;;;4.90;;
12852;SDS011;6495;51.808;7.478;2023-02-14T04:06:10;6.67;;;4.30;;
12852;SDS011;6495;51.808;7.478;2023-02-14T04:08:39;8.77;;;5.23;;
12852;SDS011;6495;51.808;7.478;2023-02-14T04:11:07;6.37;;;4.30;;
12852;SDS011;6495;51.808;7.478;2023-02-14T04:13:37;7.73;;;4.63;;
12852;SDS011;6495;51.808;7.478;2023-02-14T04:16:05;8.53;;;5.03;;
12852;SDS011;6495;51.808;7.478;2023-02-14T04:18:34;7.60;;;4.73;;
12852;SDS011;6495;51.808;7.478;2023-02-14T04:21:20;9.30;;;5.07;;
12852;SDS011;6495;51.808;7.478;2023-02-14T04:23:48;5.50;;;4.00;;
12852;SDS011;6495;51.808;7.478;2023-02-14T04:26:16;6.67;;;4.10;;
12852;SDS011;6495;51.808;7.478;2023-02-14T04:28:46;5.50;;;4.10;;
12852;SDS011;6495;51.808;7.478;2023-02-14T04:31:14;9.00;;;4.90;;
12852;SDS011;6495;51.808;7.478;2023-02-14T04:33:42;6.20;;;4.53;;
12852;SDS011;6495;51.808;7.478;2023-02-14T04:36:11;7.50;;;4.37;;
12852;SDS011;6495;51.808;7.478;2023-02-14T04:38:39;7.57;;;4.63;;
12852;SDS011;6495;51.808;7.478;2023-02-14T04:41:08;6.33;;;4.57;;
12852;SDS011;6495;51.808;7.478;2023-02-14T04:43:36;6.90;;;4.80;;
12852;SDS011;6495;51.808;7.478;2023-02-14T04:46:05;5.53;;;3.87;;
12852;SDS011;6495;51.808;7.478;2023-02-14T04:48:33;11.23;;;3.87;;
12852;SDS011;6495;51.808;7.478;2023-02-14T04:51:02;8.17;;;4.73;;
12852;SDS011;6495;51.808;7.478;2023-02-14T04:53:32;5.67;;;4.10;;
12852;SDS011;6495;51.808;7.478;2023-02-14T04:56:05;6.30;;;4.33;;
12852;SDS011;6495;51.808;7.478;2023-02-14T04:58:34;8.30;;;4.23;;
12852;SDS011;6495;51.808;7.478;2023-02-14T05:01:02;7.40;;;4.30;;
12852;SDS011;6495;51.808;7.478;2023-02-14T05:03:32;6.53;;;4.40;;
12852;SDS011;6495;51.808;7.478;2023-02-14T05:06:00;5.07;;;3.93;;
12852;SDS011;6495;51.808;7.478;2023-02-14T05:08:28;8.43;;;4.67;;
12852;SDS011;6495;51.808;7.478;2023-02-14T05:10:56;6.47;;;4.17;;
12852;SDS011;6495;51.808;7.478;2023-02-14T05:13:25;8.13;;;4.20;;
12852;SDS011;6495;51.808;7.478;2023-02-14T05:15:53;8.30;;;4.67;;
12852;SDS011;6495;51.808;7.478;2023-02-14T05:18:22;6.33;;;4.37;;
12852;SDS011;6495;51.808;7.478;2023-02-14T05:20:52;7.53;;;4.40;;
12852;SDS011;6495;51.808;7.478;2023-02-14T05:23:21;7.33;;;4.23;;
12852;SDS011;6495;51.808;7.478;2023-02-14T05:25:50;7.27;;;4.63;;
12852;SDS011;6495;51.808;7.478;2023-02-14T05:28:18;7.80;;;4.50;;
12852;SDS011;6495;51.808;7.478;2023-02-14T05:30:48;7.13;;;4.70;;
12852;SDS011;6495;51.808;7.478;2023-02-14T05:33:19;6.23;;;4.67;;
12852;SDS011;6495;51.808;7.478;2023-02-14T05:35:48;7.37;;;4.87;;
12852;SDS011;6495;51.808;7.478;2023-02-14T05:38:17;6.40;;;4.07;;
12852;SDS011;6495;51.808;7.478;2023-02-14T05:40:46;7.10;;;4.50;;
12852;SDS011;6495;51.808;7.478;2023-02-14T05:43:14;8.27;;;4.13;;
12852;SDS011;6495;51.808;7.478;2023-02-14T05:45:42;6.83;;;4.43;;
12852;SDS011;6495;51.808;7.478;2023-02-14T05:48:11;6.47;;;3.93;;
12852;SDS011;6495;51.808;7.478;2023-02-14T05:50:39;7.77;;;5.03;;
12852;SDS011;6495;51.808;7.478;2023-02-14T05:53:11;7.57;;;4.33;;
12852;SDS011;6495;51.808;7.478;2023-02-14T05:55:43;7.83;;;4.03;;
12852;SDS011;6495;51.808;7.478;2023-02-14T05:58:12;7.63;;;4.53;;
12852;SDS011;6495;51.808;7.478;2023-02-14T06:00:41;8.50;;;4.80;;
12852;SDS011;6495;51.808;7.478;2023-02-14T06:03:09;7.47;;;4.53;;
12852;SDS011;6495;51.808;7.478;2023-02-14T06:05:38;7.30;;;4.53;;
12852;SDS011;6495;51.808;7.478;2023-02-14T06:08:06;7.67;;;4.83;;
12852;SDS011;6495;51.808;7.478;2023-02-14T06:10:34;8.67;;;4.20;;
12852;SDS011;6495;51.808;7.478;2023-02-14T06:13:04;6.80;;;4.10;;
12852;SDS011;6495;51.808;7.478;2023-02-14T06:15:34;5.77;;;3.93;;
12852;SDS011;6495;51.808;7.478;2023-02-14T06:18:03;6.73;;;3.97;;
12852;SDS011;6495;51.808;7.478;2023-02-14T06:20:32;6.27;;;3.87;;
12852;SDS011;6495;51.808;7.478;2023-02-14T06:23:01;6.53;;;3.60;;
12852;SDS011;6495;51.808;7.478;2023-02-14T06:25:30;6.80;;;4.33;;
12852;SDS011;6495;51.808;7.478;2023-02-14T06:27:58;7.03;;;4.80;;
12852;SDS011;6495;51.808;7.478;2023-02-14T06:30:28;5.77;;;4.30;;
12852;SDS011;6495;51.808;7.478;2023-02-14T06:32:57;5.67;;;3.80;;
12852;SDS011;6495;51.808;7.478;2023-02-14T06:35:25;7.20;;;4.23;;
12852;SDS011;6495;51.808;7.478;2023-02-14T06:37:53;8.97;;;3.97;;
12852;SDS011;6495;51.808;7.478;2023-02-14T06:40:22;8.93;;;4.10;;
12852;SDS011;6495;51.808;7.478;2023-02-14T06:42:50;10.83;;;4.77;;
12852;SDS011;6495;51.808;7.478;2023-02-14T06:45:19;4.80;;;3.33;;
12852;SDS011;6495;51.808;7.478;2023-02-14T06:47:48;9.70;;;4.43;;
12852;SDS011;6495;51.808;7.478;2023-02-14T06:50:17;9.57;;;4.80;;
12852;SDS011;6495;51.808;7.478;2023-02-14T06:52:45;10.47;;;4.70;;
12852;SDS011;6495;51.808;7.478;2023-02-14T06:55:13;9.03;;;5.07;;
12852;SDS011;6495;51.808;7.478;2023-02-14T06:57:44;7.40;;;4.50;;
12852;SDS011;6495;51.808;7.478;2023-02-14T07:00:12;6.33;;;4.10;;
12852;SDS011;6495;51.808;7.478;2023-02-14T07:02:41;6.43;;;4.73;;
12852;SDS011;6495;51.808;7.478;2023-02-14T07:05:11;6.47;;;4.43;;
12852;SDS011;6495;51.808;7.478;2023-02-14T07:07:40;9.70;;;5.20;;
12852;SDS011;6495;51.808;7.478;2023-02-14T07:10:08;7.23;;;4.23;;
12852;SDS011;6495;51.808;7.478;2023-02-14T07:12:37;7.97;;;4.03;;
12852;SDS011;6495;51.808;7.478;2023-02-14T07:15:06;6.73;;;3.97;;
12852;SDS011;6495;51.808;7.478;2023-02-14T07:17:37;5.17;;;3.77;;
12852;SDS011;6495;51.808;7.478;2023-02-14T07:20:06;8.30;;;4.70;;
12852;SDS011;6495;51.808;7.478;2023-02-14T07:22:37;8.30;;;4.47;;
12852;SDS011;6495;51.808;7.478;2023-02-14T07:25:06;6.30;;;4.40;;
12852;SDS011;6495;51.808;7.478;2023-02-14T07:27:35;8.43;;;4.47;;
12852;SDS011;6495;51.808;7.478;2023-02-14T07:30:04;7.27;;;4.33;;
12852;SDS011;6495;51.808;7.478;2023-02-14T07:32:35;7.67;;;4.57;;
12852;SDS011;6495;51.808;7.478;2023-02-14T07:35:04;8.63;;;4.77;;
12852;SDS011;6495;51.808;7.478;2023-02-14T07:37:34;7.67;;;4.57;;
12852;SDS011;6495;51.808;7.478;2023-02-14T07:40:04;6.70;;;4.57;;
12852;SDS011;6495;51.808;7.478;2023-02-14T07:42:40;9.07;;;4.80;;
12852;SDS011;6495;51.808;7.478;2023-02-14T07:45:10;9.60;;;4.37;;
12852;SDS011;6495;51.808;7.478;2023-02-14T07:47:48;9.70;;;5.30;;
12852;SDS011;6495;51.808;7.478;2023-02-14T07:50:17;8.67;;;4.77;;
12852;SDS011;6495;51.808;7.478;2023-02-14T07:52:47;7.00;;;4.90;;
12852;SDS011;6495;51.808;7.478;2023-02-14T07:55:16;8.17;;;4.53;;
12852;SDS011;6495;51.808;7.478;2023-02-14T07:57:46;8.53;;;4.77;;
12852;SDS011;6495;51.808;7.478;2023-02-14T08:00:14;7.17;;;4.70;;
12852;SDS011;6495;51.808;7.478;2023-02-14T08:02:44;8.77;;;5.07;;
12852;SDS011;6495;51.808;7.478;2023-02-14T08:05:12;7.50;;;4.60;;
12852;SDS011;6495;51.808;7.478;2023-02-14T08:07:41;7.87;;;5.10;;
12852;SDS011;6495;51.808;7.478;2023-02-14T08:10:09;8.43;;;5.00;;
12852;SDS011;6495;51.808;7.478;2023-02-14T08:12:40;11.90;;;5.30;;
12852;SDS011;6495;51.808;7.478;2023-02-14T08:15:22;6.90;;;5.00;;
12852;SDS011;6495;51.808;7.478;2023-02-14T08:18:08;8.77;;;5.43;;
12852;SDS011;6495;51.808;7.478;2023-02-14T08:20:36;9.23;;;5.77;;
12852;SDS011;6495;51.808;7.478;2023-02-14T08:23:04;11.07;;;6.40;;
12852;SDS011;6495;51.808;7.478;2023-02-14T08:25:33;7.73;;;5.53;;
12852;SDS011;6495;51.808;7.478;2023-02-14T08:28:02;9.23;;;5.30;;
12852;SDS011;6495;51.808;7.478;2023-02-14T08:30:31;9.00;;;5.27;;
12852;SDS011;6495;51.808;7.478;2023-02-14T08:33:02;6.63;;;5.33;;
12852;SDS011;6495;51.808;7.478;2023-02-14T08:35:30;9.47;;;6.00;;
12852;SDS011;6495;51.808;7.478;2023-02-14T08:37:59;10.07;;;5.43;;
12852;SDS011;6495;51.808;7.478;2023-02-14T08:40:28;9.33;;;6.13;;
12852;SDS011;6495;51.808;7.478;2023-02-14T08:42:56;7.77;;;5.43;;
12852;SDS011;6495;51.808;7.478;2023-02-14T08:45:26;9.47;;;5.80;;
12852;SDS011;6495;51.808;7.478;2023-02-14T08:47:58;13.10;;;6.17;;
12852;SDS011;6495;51.808;7.478;2023-02-14T08:50:28;9.00;;;6.20;;
12852;SDS011;6495;51.808;7.478;2023-02-14T08:52:56;10.50;;;6.97;;
12852;SDS011;6495;51.808;7.478;2023-02-14T08:55:25;13.60;;;6.63;;
12852;SDS011;6495;51.808;7.478;2023-02-14T08:57:54;8.37;;;6.13;;
12852;SDS011;6495;51.808;7.478;2023-02-14T09:00:23;9.90;;;6.57;;
12852;SDS011;6495;51.808;7.478;2023-02-14T09:02:53;6.57;;;5.37;;
12852;SDS011;6495;51.808;7.478;2023-02-14T09:05:22;7.07;;;5.33;;
12852;SDS011;6495;51.808;7.478;2023-02-14T09:07:50;8.17;;;5.27;;
12852;SDS011;6495;51.808;7.478;2023-02-14T09:10:19;8.17;;;5.60;;
12852;SDS011;6495;51.808;7.478;2023-02-14T09:12:47;8.73;;;5.30;;
12852;SDS011;6495;51.808;7.478;2023-02-14T09:15:15;10.07;;;6.07;;
12852;SDS011;6495;51.808;7.478;2023-02-14T09:17:45;8.73;;;5.80;;
12852;SDS011;6495;51.808;7.478;2023-02-14T09:20:16;12.33;;;6.00;;
12852;SDS011;6495;51.808;7.478;2023-02-14T09:22:44;8.20;;;5.50;;
12852;SDS011;6495;51.808;7.478;2023-02-14T09:25:14;11.03;;;5.67;;
12852;SDS011;6495;51.808;7.478;2023-02-14T09:27:42;7.87;;;5.63;;
12852;SDS011;6495;51.808;7.478;2023-02-14T09:30:11;8.93;;;5.73;;
12852;SDS011;6495;51.808;7.478;2023-02-14T09:32:41;8.70;;;5.77;;
12852;SDS011;6495;51.808;7.478;2023-02-14T09:35:10;6.97;;;5.17;;
12852;SDS011;6495;51.808;7.478;2023-02-14T09:37:39;9.73;;;5.57;;
12852;SDS011;6495;51.808;7.478;2023-02-14T09:40:07;8.77;;;5.73;;
12852;SDS011;6495;51.808;7.478;2023-02-14T09:42:42;8.70;;;5.83;;
12852;SDS011;6495;51.808;7.478;2023-02-14T09:45:21;8.23;;;6.17;;
12852;SDS011;6495;51.808;7.478;2023-02-14T09:47:54;12.47;;;5.57;;
12852;SDS011;6495;51.808;7.478;2023-02-14T09:50:28;9.20;;;5.93;;
12852;SDS011;6495;51.808;7.478;2023-02-14T09:53:04;9.30;;;5.80;;
12852;SDS011;6495;51.808;7.478;2023-02-14T09:55:46;9.38;;;5.90;;
12852;SDS011;6495;51.808;7.478;2023-02-14T09:58:27;10.53;;;5.93;;
12852;SDS011;6495;51.808;7.478;2023-02-14T10:01:04;8.40;;;5.97;;
12852;SDS011;6495;51.808;7.478;2023-02-14T10:03:51;9.10;;;5.67;;
12852;SDS011;6495;51.808;7.478;2023-02-14T10:06:47;6.95;;;5.20;;
12852;SDS011;6495;51.808;7.478;2023-02-14T10:09:26;9.90;;;5.70;;
12852;SDS011;6495;51.808;7.478;2023-02-14T10:12:13;8.30;;;5.38;;
12852;SDS011;6495;51.808;7.478;2023-02-14T10:14:49;7.88;;;5.72;;
12852;SDS011;6495;51.808;7.478;2023-02-14T10:17:24;8.13;;;5.95;;
12852;SDS011;6495;51.808;7.478;2023-02-14T10:20:09;9.05;;;5.80;;
12852;SDS011;6495;51.808;7.478;2023-02-14T10:22:52;8.80;;;5.45;;
12852;SDS011;6495;51.808;7.478;2023-02-14T10:25:31;9.48;;;5.38;;
12852;SDS011;6495;51.808;7.478;2023-02-14T10:28:10;11.18;;;5.25;;
12852;SDS011;6495;51.808;7.478;2023-02-14T10:30:44;6.32;;;3.90;;
12852;SDS011;6495;51.808;7.478;2023-02-14T10:33:24;7.72;;;4.45;;
12852;SDS011;6495;51.808;7.478;2023-02-14T10:35:59;7.18;;;4.53;;
12852;SDS011;6495;51.808;7.478;2023-02-14T10:38:37;6.57;;;4.85;;
12852;SDS011;6495;51.808;7.478;2023-02-14T10:41:21;7.68;;;4.70;;
12852;SDS011;6495;51.808;7.478;2023-02-14T10:44:09;9.27;;;5.22;;
12852;SDS011;6495;51.808;7.478;2023-02-14T10:46:55;5.78;;;4.22;;
12852;SDS011;6495;51.808;7.478;2023-02-14T10:49:35;6.80;;;4.75;;
12852;SDS011;6495;51.808;7.478;2023-02-14T10:52:14;7.97;;;4.57;;
12852;SDS011;6495;51.808;7.478;2023-02-14T10:54:52;8.45;;;4.72;;
12852;SDS011;6495;51.808;7.478;2023-02-14T10:57:25;7.78;;;4.82;;
12852;SDS011;6495;51.808;7.478;2023-02-14T11:00:00;6.28;;;4.30;;
12852;SDS011;6495;51.808;7.478;2023-02-14T11:02:36;10.13;;;4.93;;
12852;SDS011;6495;51.808;7.478;2023-02-14T11:05:14;8.98;;;4.88;;
12852;SDS011;6495;51.808;7.478;2023-02-14T11:07:52;7.65;;;4.85;;
12852;SDS011;6495;51.808;7.478;2023-02-14T11:10:23;6.47;;;4.47;;
12852;SDS011;6495;51.808;7.478;2023-02-14T11:12:56;6.93;;;4.20;;
12852;SDS011;6495;51.808;7.478;2023-02-14T11:15:25;6.70;;;4.57;;
12852;SDS011;6495;51.808;7.478;2023-02-14T11:18:11;8.48;;;4.80;;
12852;SDS011;6495;51.808;7.478;2023-02-14T11:20:58;6.97;;;4.78;;
12852;SDS011;6495;51.808;7.478;2023-02-14T11:23:32;11.65;;;4.97;;
12852;SDS011;6495;51.808;7.478;2023-02-14T11:26:06;9.98;;;5.20;;
12852;SDS011;6495;51.808;7.478;2023-02-14T11:28:48;7.72;;;4.47;;
12852;SDS011;6495;51.808;7.478;2023-02-14T11:31:23;7.43;;;4.60;;
12852;SDS011;6495;51.808;7.478;2023-02-14T11:33:58;7.80;;;4.72;;
12852;SDS011;6495;51.808;7.478;2023-02-14T11:36:31;7.53;;;4.72;;
12852;SDS011;6495;51.808;7.478;2023-02-14T11:39:15;7.18;;;4.82;;
12852;SDS011;6495;51.808;7.478;2023-02-14T11:41:57;9.25;;;5.13;;
12852;SDS011;6495;51.808;7.478;2023-02-14T11:44:30;9.30;;;4.85;;
12852;SDS011;6495;51.808;7.478;2023-02-14T11:47:16;7.50;;;4.85;;
12852;SDS011;6495;51.808;7.478;2023-02-14T11:49:54;7.95;;;5.25;;
12852;SDS011;6495;51.808;7.478;2023-02-14T11:52:26;8.60;;;5.00;;
12852;SDS011;6495;51.808;7.478;2023-02-14T11:54:56;9.25;;;4.53;;
12852;SDS011;6495;51.808;7.478;2023-02-14T11:57:27;6.88;;;4.18;;
12852;SDS011;6495;51.808;7.478;2023-02-14T12:00:00;7.05;;;4.80;;
12852;SDS011;6495;51.808;7.478;2023-02-14T12:02:42;6.90;;;4.88;;
12852;SDS011;6495;51.808;7.478;2023-02-14T12:05:15;10.23;;;5.45;;
12852;SDS011;6495;51.808;7.478;2023-02-14T12:07:48;9.77;;;5.38;;
12852;SDS011;6495;51.808;7.478;2023-02-14T12:10:21;7.32;;;4.90;;
12852;SDS011;6495;51.808;7.478;2023-02-14T12:13:00;8.40;;;4.95;;
12852;SDS011;6495;51.808;7.478;2023-02-14T12:15:50;5.38;;;4.22;;
12852;SDS011;6495;51.808;7.478;2023-02-14T12:18:35;7.70;;;5.30;;
12852;SDS011;6495;51.808;7.478;2023-02-14T12:21:17;6.97;;;5.00;;
12852;SDS011;6495;51.808;7.478;2023-02-14T12:24:04;8.57;;;4.65;;
12852;SDS011;6495;51.808;7.478;2023-02-14T12:26:45;7.68;;;5.05;;
12852;SDS011;6495;51.808;7.478;2023-02-14T12:29:30;8.38;;;5.32;;
12852;SDS011;6495;51.808;7.478;2023-02-14T12:32:09;8.07;;;4.80;;
12852;SDS011;6495;51.808;7.478;2023-02-14T12:34:46;7.78;;;5.00;;
12852;SDS011;6495;51.808;7.478;2023-02-14T12:37:19;5.97;;;4.78;;
12852;SDS011;6495;51.808;7.478;2023-02-14T12:40:10;7.50;;;5.13;;
12852;SDS011;6495;51.808;7.478;2023-02-14T12:42:53;8.25;;;5.80;;
12852;SDS011;6495;51.808;7.478;2023-02-14T12:45:49;7.68;;;4.88;;
12852;SDS011;6495;51.808;7.478;2023-02-14T12:48:48;10.20;;;5.35;;
12852;SDS011;6495;51.808;7.478;2023-02-14T12:51:35;8.20;;;4.90;;
12852;SDS011;6495;51.808;7.478;2023-02-14T12:54:22;10.02;;;5.40;;
12852;SDS011;6495;51.808;7.478;2023-02-14T12:57:12;7.72;;;5.30;;
12852;SDS011;6495;51.808;7.478;2023-02-14T12:59:57;9.10;;;5.22;;
12852;SDS011;6495;51.808;7.478;2023-02-14T13:02:51;10.05;;;5.28;;
12852;SDS011;6495;51.808;7.478;2023-02-14T13:06:00;9.50;;;5.70;;
12852;SDS011;6495;51.808;7.478;2023-02-14T13:11:42;8.13;;;5.18;;
12852;SDS011;6495;51.808;7.478;2023-02-14T13:14:30;8.38;;;4.93;;
12852;SDS011;6495;51.808;7.478;2023-02-14T13:17:20;9.23;;;5.45;;
12852;SDS011;6495;51.808;7.478;2023-02-14T13:20:03;9.02;;;5.25;;
12852;SDS011;6495;51.808;7.478;2023-02-14T13:22:51;9.30;;;5.40;;
12852;SDS011;6495;51.808;7.478;2023-02-14T13:25:24;9.35;;;6.10;;
12852;SDS011;6495;51.808;7.478;2023-02-14T13:27:58;9.82;;;6.30;;
12852;SDS011;6495;51.808;7.478;2023-02-14T13:30:32;10.15;;;6.13;;
12852;SDS011;6495;51.808;7.478;2023-02-14T13:33:04;10.15;;;5.90;;
12852;SDS011;6495;51.808;7.478;2023-02-14T13:35:42;10.20;;;5.63;;
12852;SDS011;6495;51.808;7.478;2023-02-14T13:38:11;8.60;;;5.50;;
12852;SDS011;6495;51.808;7.478;2023-02-14T13:40:49;11.02;;;6.15;;
12852;SDS011;6495;51.808;7.478;2023-02-14T13:52:51;7.65;;;5.43;;
12852;SDS011;6495;51.808;7.478;2023-02-14T13:55:23;9.73;;;5.78;;
12852;SDS011;6495;51.808;7.478;2023-02-14T13:58:01;10.95;;;6.10;;
12852;SDS011;6495;51.808;7.478;2023-02-14T14:00:36;8.30;;;5.78;;
12852;SDS011;6495;51.808;7.478;2023-02-14T14:03:11;10.48;;;6.30;;
12852;SDS011;6495;51.808;7.478;2023-02-14T14:06:24;10.85;;;6.13;;
12852;SDS011;6495;51.808;7.478;2023-02-14T14:13:10;9.60;;;6.03;;
12852;SDS011;6495;51.808;7.478;2023-02-14T14:43:26;9.45;;;5.75;;
12852;SDS011;6495;51.808;7.478;2023-02-14T14:45:59;13.15;;;6.68;;
12852;SDS011;6495;51.808;7.478;2023-02-14T14:48:31;12.38;;;6.68;;
12852;SDS011;6495;51.808;7.478;2023-02-14T14:51:04;10.80;;;6.15;;
12852;SDS011;6495;51.808;7.478;2023-02-14T14:53:36;9.00;;;6.65;;
12852;SDS011;6495;51.808;7.478;2023-02-14T14:56:11;11.52;;;7.18;;
12852;SDS011;6495;51.808;7.478;2023-02-14T14:58:41;10.18;;;6.47;;
12852;SDS011;6495;51.808;7.478;2023-02-14T15:01:10;9.88;;;6.10;;
12852;SDS011;6495;51.808;7.478;2023-02-14T15:03:46;8.73;;;5.80;;
12852;SDS011;6495;51.808;7.478;2023-02-14T15:06:16;10.75;;;6.35;;
12852;SDS011;6495;51.808;7.478;2023-02-14T15:08:46;9.50;;;6.32;;
12852;SDS011;6495;51.808;7.478;2023-02-14T15:11:17;10.05;;;6.20;;
12852;SDS011;6495;51.808;7.478;2023-02-14T15:14:10;10.15;;;6.30;;
12852;SDS011;6495;51.808;7.478;2023-02-14T15:16:46;10.00;;;6.60;;
12852;SDS011;6495;51.808;7.478;2023-02-14T15:19:17;10.35;;;6.07;;
12852;SDS011;6495;51.808;7.478;2023-02-14T15:21:56;9.80;;;6.65;;
12852;SDS011;6495;51.808;7.478;2023-02-14T15:24:25;10.32;;;6.47;;
12852;SDS011;6495;51.808;7.478;2023-02-14T15:26:55;9.20;;;6.28;;
12852;SDS011;6495;51.808;7.478;2023-02-14T15:29:26;10.57;;;6.57;;
12852;SDS011;6495;51.808;7.478;2023-02-14T15:31:57;10.13;;;6.00;;
12852;SDS011;6495;51.808;7.478;2023-02-14T15:34:29;12.55;;;6.55;;
12852;SDS011;6495;51.808;7.478;2023-02-14T15:37:01;8.77;;;6.13;;
12852;SDS011;6495;51.808;7.478;2023-02-14T15:39:33;10.60;;;6.38;;
12852;SDS011;6495;51.808;7.478;2023-02-14T15:42:16;9.68;;;5.93;;
12852;SDS011;6495;51.808;7.478;2023-02-14T15:45:13;10.15;;;6.35;;
12852;SDS011;6495;51.808;7.478;2023-02-14T15:47:50;9.30;;;5.47;;
12852;SDS011;6495;51.808;7.478;2023-02-14T15:50:20;7.95;;;5.85;;
12852;SDS011;6495;51.808;7.478;2023-02-14T15:52:53;10.52;;;6.78;;
12852;SDS011;6495;51.808;7.478;2023-02-14T15:55:28;9.98;;;6.25;;
12852;SDS011;6495;51.808;7.478;2023-02-14T15:57:59;11.70;;;6.13;;
12852;SDS011;6495;51.808;7.478;2023-02-14T16:00:32;10.55;;;6.05;;
12852;SDS011;6495;51.808;7.478;2023-02-14T16:03:02;8.90;;;6.53;;
12852;SDS011;6495;51.808;7.478;2023-02-14T16:05:35;9.90;;;5.60;;
12852;SDS011;6495;51.808;7.478;2023-02-14T16:08:04;11.18;;;6.20;;
12852;SDS011;6495;51.808;7.478;2023-02-14T16:10:56;10.18;;;6.53;;
12852;SDS011;6495;51.808;7.478;2023-02-14T16:13:29;10.07;;;6.60;;
12852;SDS011;6495;51.808;7.478;2023-02-14T16:16:02;10.05;;;6.32;;
12852;SDS011;6495;51.808;7.478;2023-02-14T16:18:34;10.60;;;6.20;;
12852;SDS011;6495;51.808;7.478;2023-02-14T16:21:09;10.70;;;6.20;;
12852;SDS011;6495;51.808;7.478;2023-02-14T16:23:45;10.90;;;5.90;;
12852;SDS011;6495;51.808;7.478;2023-02-14T16:26:36;8.77;;;6.18;;
12852;SDS011;6495;51.808;7.478;2023-02-14T16:29:07;14.07;;;6.78;;
12852;SDS011;6495;51.808;7.478;2023-02-14T16:31:41;8.27;;;5.85;;
12852;SDS011;6495;51.808;7.478;2023-02-14T16:34:32;11.65;;;6.20;;
12852;SDS011;6495;51.808;7.478;2023-02-14T16:37:03;11.48;;;5.97;;